sensor_id;sensor_type;location;lat;lon;timestamp;temperature;humidity
16128;DHT22;8168;49.036;7.690;2023-06-22T00:00:00;21.60;99.90
16128;DHT22;8168;49.036;7.690;2023-06-22T00:02:31;21.70;99.90
16128;DHT22;8168;49.036;7.690;2023-06-22T00:05:01;21.60;99.90
16128;DHT22;8168;49.036;7.690;2023-06-22T00:07:32;21.50;99.90
16128;DHT22;8168;49.036;7.690;2023-06-22T00:10:03;21.40;99.90
16128;DHT22;8168;49.036;7.690;2023-06-22T00:12:33;21.40;99.90
16128;DHT22;8168;49.036;7.690;2023-06-22T00:15:04;21.40;99.90
16128;DHT22;8168;49.036;7.690;2023-06-22T00:17:35;21.30;99.90
16128;DHT22;8168;49.036;7.690;2023-06-22T00:20:07;21.30;99.90
16128;DHT22;8168;49.036;7.690;2023-06-22T00:22:38;21.20;99.90
16128;DHT22;8168;49.036;7.690;2023-06-22T00:25:10;21.20;99.90
16128;DHT22;8168;49.036;7.690;2023-06-22T00:27:40;21.20;99.90
16128;DHT22;8168;49.036;7.690;2023-06-22T00:30:11;21.20;99.90
16128;DHT22;8168;49.036;7.690;2023-06-22T00:32:43;21.30;99.90
16128;DHT22;8168;49.036;7.690;2023-06-22T00:35:14;21.40;99.90
16128;DHT22;8168;49.036;7.690;2023-06-22T00:37:45;21.40;99.90
16128;DHT22;8168;49.036;7.690;2023-06-22T00:40:15;21.40;99.90
16128;DHT22;8168;49.036;7.690;2023-06-22T00:42:47;21.40;99.90
16128;DHT22;8168;49.036;7.690;2023-06-22T00:45:18;21.30;99.90
16128;DHT22;8168;49.036;7.690;2023-06-22T00:47:53;19.90;99.90
16128;DHT22;8168;49.036;7.690;2023-06-22T00:50:27;21.40;99.90
16128;DHT22;8168;49.036;7.690;2023-06-22T00:53:00;21.40;99.90
16128;DHT22;8168;49.036;7.690;2023-06-22T00:55:31;21.30;99.90
16128;DHT22;8168;49.036;7.690;2023-06-22T00:58:02;21.30;99.90
16128;DHT22;8168;49.036;7.690;2023-06-22T01:00:32;21.30;99.90
16128;DHT22;8168;49.036;7.690;2023-06-22T01:03:03;21.30;99.90
16128;DHT22;8168;49.036;7.690;2023-06-22T01:05:35;21.30;99.90
16128;DHT22;8168;49.036;7.690;2023-06-22T01:10:50;21.40;99.90
16128;DHT22;8168;49.036;7.690;2023-06-22T01:16:29;21.40;99.90
16128;DHT22;8168;49.036;7.690;2023-06-22T01:19:29;21.30;99.90
16128;DHT22;8168;49.036;7.690;2023-06-22T01:21:56;21.30;99.90
16128;DHT22;8168;49.036;7.690;2023-06-22T01:24:32;21.10;99.90
16128;DHT22;8168;49.036;7.690;2023-06-22T01:29:56;21.20;99.90
16128;DHT22;8168;49.036;7.690;2023-06-22T01:32:36;21.20;99.90
16128;DHT22;8168;49.036;7.690;2023-06-22T01:35:09;21.30;99.90
16128;DHT22;8168;49.036;7.690;2023-06-22T01:37:40;21.20;99.90
16128;DHT22;8168;49.036;7.690;2023-06-22T01:40:11;21.30;99.90
16128;DHT22;8168;49.036;7.690;2023-06-22T01:42:43;21.30;99.90
16128;DHT22;8168;49.036;7.690;2023-06-22T01:45:14;21.30;99.90
16128;DHT22;8168;49.036;7.690;2023-06-22T01:47:46;21.30;99.90
16128;DHT22;8168;49.036;7.690;2023-06-22T01:50:17;21.30;99.90
16128;DHT22;8168;49.036;7.690;2023-06-22T01:52:48;21.30;99.90
16128;DHT22;8168;49.036;7.690;2023-06-22T01:55:19;21.40;99.90
16128;DHT22;8168;49.036;7.690;2023-06-22T01:57:49;21.40;99.90
16128;DHT22;8168;49.036;7.690;2023-06-22T02:00:22;21.30;99.90
16128;DHT22;8168;49.036;7.690;2023-06-22T02:02:54;21.30;99.90
16128;DHT22;8168;49.036;7.690;2023-06-22T02:05:33;21.20;99.90
16128;DHT22;8168;49.036;7.690;2023-06-22T02:08:22;21.20;99.90
16128;DHT22;8168;49.036;7.690;2023-06-22T02:10:55;21.10;99.90
16128;DHT22;8168;49.036;7.690;2023-06-22T02:13:27;21.10;99.90
16128;DHT22;8168;49.036;7.690;2023-06-22T02:15:58;21.20;99.90
16128;DHT22;8168;49.036;7.690;2023-06-22T02:18:29;21.20;99.90
16128;DHT22;8168;49.036;7.690;2023-06-22T02:21:00;21.20;99.90
16128;DHT22;8168;49.036;7.690;2023-06-22T02:23:31;21.10;99.90
16128;DHT22;8168;49.036;7.690;2023-06-22T02:26:03;21.10;99.90
16128;DHT22;8168;49.036;7.690;2023-06-22T02:28:34;21.10;99.90
16128;DHT22;8168;49.036;7.690;2023-06-22T02:31:05;21.00;99.90
16128;DHT22;8168;49.036;7.690;2023-06-22T02:33:35;21.00;99.90
16128;DHT22;8168;49.036;7.690;2023-06-22T02:36:06;21.00;99.90
16128;DHT22;8168;49.036;7.690;2023-06-22T02:38:43;21.00;99.90
16128;DHT22;8168;49.036;7.690;2023-06-22T02:41:18;21.00;99.90
16128;DHT22;8168;49.036;7.690;2023-06-22T02:43:49;21.00;99.90
16128;DHT22;8168;49.036;7.690;2023-06-22T02:46:20;20.90;99.90
16128;DHT22;8168;49.036;7.690;2023-06-22T02:48:50;20.90;99.90
16128;DHT22;8168;49.036;7.690;2023-06-22T02:51:21;20.90;99.90
16128;DHT22;8168;49.036;7.690;2023-06-22T02:53:52;20.90;99.90
16128;DHT22;8168;49.036;7.690;2023-06-22T02:56:28;20.90;99.90
16128;DHT22;8168;49.036;7.690;2023-06-22T02:59:00;20.90;99.90
16128;DHT22;8168;49.036;7.690;2023-06-22T03:01:31;20.90;99.90
16128;DHT22;8168;49.036;7.690;2023-06-22T03:04:10;20.90;99.90
16128;DHT22;8168;49.036;7.690;2023-06-22T03:06:41;20.80;99.90
16128;DHT22;8168;49.036;7.690;2023-06-22T03:09:11;20.70;99.90
16128;DHT22;8168;49.036;7.690;2023-06-22T03:11:42;20.70;99.90
16128;DHT22;8168;49.036;7.690;2023-06-22T03:14:12;20.60;99.90
16128;DHT22;8168;49.036;7.690;2023-06-22T03:16:43;20.50;99.90
16128;DHT22;8168;49.036;7.690;2023-06-22T03:19:14;20.50;99.90
16128;DHT22;8168;49.036;7.690;2023-06-22T03:21:44;20.50;99.90
16128;DHT22;8168;49.036;7.690;2023-06-22T03:24:15;20.50;99.90
16128;DHT22;8168;49.036;7.690;2023-06-22T03:26:46;20.40;99.90
16128;DHT22;8168;49.036;7.690;2023-06-22T03:29:17;20.40;99.90
16128;DHT22;8168;49.036;7.690;2023-06-22T03:31:47;20.40;99.90
16128;DHT22;8168;49.036;7.690;2023-06-22T03:34:18;20.50;99.90
16128;DHT22;8168;49.036;7.690;2023-06-22T03:36:49;20.30;99.90
16128;DHT22;8168;49.036;7.690;2023-06-22T03:39:19;20.30;99.90
16128;DHT22;8168;49.036;7.690;2023-06-22T03:41:50;20.20;99.90
16128;DHT22;8168;49.036;7.690;2023-06-22T03:44:21;20.20;99.90
16128;DHT22;8168;49.036;7.690;2023-06-22T03:46:51;20.20;99.90
16128;DHT22;8168;49.036;7.690;2023-06-22T03:49:22;20.10;99.90
16128;DHT22;8168;49.036;7.690;2023-06-22T03:51:53;20.10;99.90
16128;DHT22;8168;49.036;7.690;2023-06-22T03:54:23;20.10;99.90
16128;DHT22;8168;49.036;7.690;2023-06-22T03:56:54;20.20;99.90
16128;DHT22;8168;49.036;7.690;2023-06-22T03:59:25;20.10;99.90
16128;DHT22;8168;49.036;7.690;2023-06-22T04:01:55;20.20;99.90
16128;DHT22;8168;49.036;7.690;2023-06-22T04:04:26;20.20;99.90
16128;DHT22;8168;49.036;7.690;2023-06-22T04:06:56;20.20;99.90
16128;DHT22;8168;49.036;7.690;2023-06-22T04:09:27;20.10;99.90
16128;DHT22;8168;49.036;7.690;2023-06-22T04:11:58;20.10;99.90
16128;DHT22;8168;49.036;7.690;2023-06-22T04:14:28;20.10;99.90
16128;DHT22;8168;49.036;7.690;2023-06-22T04:16:59;20.10;99.90
16128;DHT22;8168;49.036;7.690;2023-06-22T04:19:29;20.10;99.90
16128;DHT22;8168;49.036;7.690;2023-06-22T04:22:00;20.10;99.90
16128;DHT22;8168;49.036;7.690;2023-06-22T04:24:31;20.00;99.90
16128;DHT22;8168;49.036;7.690;2023-06-22T04:27:01;19.90;99.90
16128;DHT22;8168;49.036;7.690;2023-06-22T04:29:33;19.90;99.90
16128;DHT22;8168;49.036;7.690;2023-06-22T04:32:04;19.90;99.90
16128;DHT22;8168;49.036;7.690;2023-06-22T04:34:35;19.80;99.90
16128;DHT22;8168;49.036;7.690;2023-06-22T04:37:06;19.80;99.90
16128;DHT22;8168;49.036;7.690;2023-06-22T04:39:36;19.90;99.90
16128;DHT22;8168;49.036;7.690;2023-06-22T04:42:07;20.00;99.90
16128;DHT22;8168;49.036;7.690;2023-06-22T04:44:38;20.00;99.90
16128;DHT22;8168;49.036;7.690;2023-06-22T04:47:10;20.00;99.90
16128;DHT22;8168;49.036;7.690;2023-06-22T04:49:40;20.00;99.90
16128;DHT22;8168;49.036;7.690;2023-06-22T04:52:14;20.10;99.90
16128;DHT22;8168;49.036;7.690;2023-06-22T04:54:49;20.10;99.90
16128;DHT22;8168;49.036;7.690;2023-06-22T04:57:21;20.20;99.90
16128;DHT22;8168;49.036;7.690;2023-06-22T05:00:02;20.20;99.90
16128;DHT22;8168;49.036;7.690;2023-06-22T05:02:43;20.30;99.90
16128;DHT22;8168;49.036;7.690;2023-06-22T05:05:15;20.30;99.90
16128;DHT22;8168;49.036;7.690;2023-06-22T05:07:47;20.30;99.90
16128;DHT22;8168;49.036;7.690;2023-06-22T05:10:23;20.40;99.90
16128;DHT22;8168;49.036;7.690;2023-06-22T05:12:53;20.40;99.90
16128;DHT22;8168;49.036;7.690;2023-06-22T05:15:24;20.50;99.90
16128;DHT22;8168;49.036;7.690;2023-06-22T05:17:58;20.60;99.90
16128;DHT22;8168;49.036;7.690;2023-06-22T05:20:29;20.70;99.90
16128;DHT22;8168;49.036;7.690;2023-06-22T05:22:59;20.70;99.90
16128;DHT22;8168;49.036;7.690;2023-06-22T05:25:30;20.80;99.90
16128;DHT22;8168;49.036;7.690;2023-06-22T05:28:02;20.90;99.90
16128;DHT22;8168;49.036;7.690;2023-06-22T05:30:41;21.00;99.90
16128;DHT22;8168;49.036;7.690;2023-06-22T05:33:11;21.00;99.90
16128;DHT22;8168;49.036;7.690;2023-06-22T05:35:42;21.10;99.90
16128;DHT22;8168;49.036;7.690;2023-06-22T05:38:13;21.20;99.90
16128;DHT22;8168;49.036;7.690;2023-06-22T05:40:44;21.20;99.90
16128;DHT22;8168;49.036;7.690;2023-06-22T05:43:15;21.20;99.90
16128;DHT22;8168;49.036;7.690;2023-06-22T05:45:45;21.30;99.90
16128;DHT22;8168;49.036;7.690;2023-06-22T05:48:16;21.40;99.90
16128;DHT22;8168;49.036;7.690;2023-06-22T05:50:47;21.40;99.90
16128;DHT22;8168;49.036;7.690;2023-06-22T05:53:17;21.50;99.90
16128;DHT22;8168;49.036;7.690;2023-06-22T05:55:48;21.70;99.90
16128;DHT22;8168;49.036;7.690;2023-06-22T05:58:19;21.70;99.90
16128;DHT22;8168;49.036;7.690;2023-06-22T06:00:49;21.90;99.90
16128;DHT22;8168;49.036;7.690;2023-06-22T06:03:20;21.90;99.90
16128;DHT22;8168;49.036;7.690;2023-06-22T06:05:51;22.00;99.90
16128;DHT22;8168;49.036;7.690;2023-06-22T06:08:21;22.10;99.90
16128;DHT22;8168;49.036;7.690;2023-06-22T06:10:52;22.20;99.90
16128;DHT22;8168;49.036;7.690;2023-06-22T06:13:24;22.30;99.90
16128;DHT22;8168;49.036;7.690;2023-06-22T06:15:55;22.40;99.90
16128;DHT22;8168;49.036;7.690;2023-06-22T06:18:26;22.40;99.90
16128;DHT22;8168;49.036;7.690;2023-06-22T06:20:57;22.50;99.90
16128;DHT22;8168;49.036;7.690;2023-06-22T06:23:27;22.50;99.90
16128;DHT22;8168;49.036;7.690;2023-06-22T06:25:58;22.60;99.90
16128;DHT22;8168;49.036;7.690;2023-06-22T06:28:28;22.60;99.90
16128;DHT22;8168;49.036;7.690;2023-06-22T06:31:02;22.70;99.90
16128;DHT22;8168;49.036;7.690;2023-06-22T06:33:33;22.80;99.90
16128;DHT22;8168;49.036;7.690;2023-06-22T06:36:03;22.80;99.90
16128;DHT22;8168;49.036;7.690;2023-06-22T06:38:34;22.80;99.90
16128;DHT22;8168;49.036;7.690;2023-06-22T06:41:05;22.90;99.90
16128;DHT22;8168;49.036;7.690;2023-06-22T06:43:35;22.90;99.90
16128;DHT22;8168;49.036;7.690;2023-06-22T06:46:06;22.90;99.90
16128;DHT22;8168;49.036;7.690;2023-06-22T06:48:36;23.00;99.90
16128;DHT22;8168;49.036;7.690;2023-06-22T06:51:10;23.20;99.90
16128;DHT22;8168;49.036;7.690;2023-06-22T06:53:40;23.20;99.90
16128;DHT22;8168;49.036;7.690;2023-06-22T06:56:11;23.30;99.90
16128;DHT22;8168;49.036;7.690;2023-06-22T06:58:42;23.30;99.90
16128;DHT22;8168;49.036;7.690;2023-06-22T07:01:13;23.40;99.90
16128;DHT22;8168;49.036;7.690;2023-06-22T07:03:43;23.40;99.90
16128;DHT22;8168;49.036;7.690;2023-06-22T07:06:14;23.50;99.90
16128;DHT22;8168;49.036;7.690;2023-06-22T07:08:45;23.50;99.90
16128;DHT22;8168;49.036;7.690;2023-06-22T07:11:15;23.60;99.90
16128;DHT22;8168;49.036;7.690;2023-06-22T07:13:46;23.70;99.90
16128;DHT22;8168;49.036;7.690;2023-06-22T07:16:16;23.80;99.90
16128;DHT22;8168;49.036;7.690;2023-06-22T07:18:47;23.80;99.90
16128;DHT22;8168;49.036;7.690;2023-06-22T07:21:18;23.90;99.90
16128;DHT22;8168;49.036;7.690;2023-06-22T07:23:48;24.00;99.90
16128;DHT22;8168;49.036;7.690;2023-06-22T07:26:19;24.00;99.90
16128;DHT22;8168;49.036;7.690;2023-06-22T07:28:50;24.10;99.90
16128;DHT22;8168;49.036;7.690;2023-06-22T07:31:21;24.20;99.90
16128;DHT22;8168;49.036;7.690;2023-06-22T07:33:52;24.20;99.90
16128;DHT22;8168;49.036;7.690;2023-06-22T07:36:22;24.40;99.90
16128;DHT22;8168;49.036;7.690;2023-06-22T07:38:53;24.40;99.90
16128;DHT22;8168;49.036;7.690;2023-06-22T07:41:23;24.40;99.90
16128;DHT22;8168;49.036;7.690;2023-06-22T07:43:54;24.50;99.90
16128;DHT22;8168;49.036;7.690;2023-06-22T07:46:25;24.50;99.90
16128;DHT22;8168;49.036;7.690;2023-06-22T07:48:56;24.60;99.90
16128;DHT22;8168;49.036;7.690;2023-06-22T07:51:27;24.70;99.90
16128;DHT22;8168;49.036;7.690;2023-06-22T07:53:58;24.80;99.90
16128;DHT22;8168;49.036;7.690;2023-06-22T07:56:28;24.90;99.90
16128;DHT22;8168;49.036;7.690;2023-06-22T07:58:59;25.00;99.90
16128;DHT22;8168;49.036;7.690;2023-06-22T08:01:31;25.00;99.90
16128;DHT22;8168;49.036;7.690;2023-06-22T08:04:01;25.10;99.90
16128;DHT22;8168;49.036;7.690;2023-06-22T08:06:32;25.10;99.90
16128;DHT22;8168;49.036;7.690;2023-06-22T08:09:03;25.20;99.90
16128;DHT22;8168;49.036;7.690;2023-06-22T08:11:33;25.20;99.90
16128;DHT22;8168;49.036;7.690;2023-06-22T08:14:04;25.20;99.90
16128;DHT22;8168;49.036;7.690;2023-06-22T08:16:35;25.20;99.90
16128;DHT22;8168;49.036;7.690;2023-06-22T08:19:05;25.20;99.90
16128;DHT22;8168;49.036;7.690;2023-06-22T08:21:36;25.30;99.90
16128;DHT22;8168;49.036;7.690;2023-06-22T08:24:08;25.40;99.90
16128;DHT22;8168;49.036;7.690;2023-06-22T08:26:38;25.40;99.90
16128;DHT22;8168;49.036;7.690;2023-06-22T08:29:09;25.40;99.90
16128;DHT22;8168;49.036;7.690;2023-06-22T08:31:40;25.50;99.90
16128;DHT22;8168;49.036;7.690;2023-06-22T08:34:10;25.60;99.90
16128;DHT22;8168;49.036;7.690;2023-06-22T08:36:41;25.60;99.90
16128;DHT22;8168;49.036;7.690;2023-06-22T08:39:13;25.60;99.90
16128;DHT22;8168;49.036;7.690;2023-06-22T08:41:44;25.60;99.90
16128;DHT22;8168;49.036;7.690;2023-06-22T08:44:18;25.60;99.90
16128;DHT22;8168;49.036;7.690;2023-06-22T08:46:49;25.70;99.90
16128;DHT22;8168;49.036;7.690;2023-06-22T08:49:19;25.70;99.90
16128;DHT22;8168;49.036;7.690;2023-06-22T08:51:50;25.80;99.90
16128;DHT22;8168;49.036;7.690;2023-06-22T08:54:23;25.80;99.90
16128;DHT22;8168;49.036;7.690;2023-06-22T08:56:54;25.80;99.90
16128;DHT22;8168;49.036;7.690;2023-06-22T08:59:24;25.80;99.90
16128;DHT22;8168;49.036;7.690;2023-06-22T09:01:55;25.80;99.90
16128;DHT22;8168;49.036;7.690;2023-06-22T09:04:25;25.80;99.90
16128;DHT22;8168;49.036;7.690;2023-06-22T09:06:56;25.80;99.90
16128;DHT22;8168;49.036;7.690;2023-06-22T09:09:27;25.80;99.90
16128;DHT22;8168;49.036;7.690;2023-06-22T09:11:57;25.80;99.90
16128;DHT22;8168;49.036;7.690;2023-06-22T09:14:28;25.90;99.90
16128;DHT22;8168;49.036;7.690;2023-06-22T09:16:58;25.90;99.90
16128;DHT22;8168;49.036;7.690;2023-06-22T09:19:29;26.00;99.90
16128;DHT22;8168;49.036;7.690;2023-06-22T09:22:00;26.20;99.90
16128;DHT22;8168;49.036;7.690;2023-06-22T09:24:30;26.20;99.90
16128;DHT22;8168;49.036;7.690;2023-06-22T09:27:01;26.20;99.90
16128;DHT22;8168;49.036;7.690;2023-06-22T09:29:32;26.20;99.90
16128;DHT22;8168;49.036;7.690;2023-06-22T09:32:04;26.20;99.90
16128;DHT22;8168;49.036;7.690;2023-06-22T09:34:35;26.30;99.90
16128;DHT22;8168;49.036;7.690;2023-06-22T09:37:05;26.30;99.90
16128;DHT22;8168;49.036;7.690;2023-06-22T09:39:36;26.30;99.90
16128;DHT22;8168;49.036;7.690;2023-06-22T09:42:07;26.30;99.90
16128;DHT22;8168;49.036;7.690;2023-06-22T09:44:38;26.30;99.90
16128;DHT22;8168;49.036;7.690;2023-06-22T09:47:09;26.30;99.90
16128;DHT22;8168;49.036;7.690;2023-06-22T09:49:39;26.40;99.90
16128;DHT22;8168;49.036;7.690;2023-06-22T09:52:10;26.40;99.90
16128;DHT22;8168;49.036;7.690;2023-06-22T09:54:41;26.60;99.90
16128;DHT22;8168;49.036;7.690;2023-06-22T09:57:12;26.60;99.90
16128;DHT22;8168;49.036;7.690;2023-06-22T09:59:43;26.60;99.90
16128;DHT22;8168;49.036;7.690;2023-06-22T10:02:13;26.70;99.90
16128;DHT22;8168;49.036;7.690;2023-06-22T10:04:44;26.90;99.90
16128;DHT22;8168;49.036;7.690;2023-06-22T10:07:15;27.10;99.90
16128;DHT22;8168;49.036;7.690;2023-06-22T10:09:45;27.20;99.90
16128;DHT22;8168;49.036;7.690;2023-06-22T10:12:16;27.30;99.90
16128;DHT22;8168;49.036;7.690;2023-06-22T10:14:46;27.40;99.90
16128;DHT22;8168;49.036;7.690;2023-06-22T10:17:17;27.40;99.90
16128;DHT22;8168;49.036;7.690;2023-06-22T10:19:48;27.40;99.90
16128;DHT22;8168;49.036;7.690;2023-06-22T10:22:18;27.40;99.90
16128;DHT22;8168;49.036;7.690;2023-06-22T10:24:49;27.40;99.90
16128;DHT22;8168;49.036;7.690;2023-06-22T10:27:19;27.40;99.90
16128;DHT22;8168;49.036;7.690;2023-06-22T10:29:50;27.40;99.90
16128;DHT22;8168;49.036;7.690;2023-06-22T10:32:21;27.40;99.90
16128;DHT22;8168;49.036;7.690;2023-06-22T10:34:51;27.50;99.90
16128;DHT22;8168;49.036;7.690;2023-06-22T10:37:22;27.60;99.90
16128;DHT22;8168;49.036;7.690;2023-06-22T10:39:53;27.60;99.90
16128;DHT22;8168;49.036;7.690;2023-06-22T10:42:23;27.60;99.90
16128;DHT22;8168;49.036;7.690;2023-06-22T10:44:54;27.60;99.90
16128;DHT22;8168;49.036;7.690;2023-06-22T10:47:25;27.50;99.90
16128;DHT22;8168;49.036;7.690;2023-06-22T10:49:55;27.60;99.90
16128;DHT22;8168;49.036;7.690;2023-06-22T10:52:26;27.80;99.90
16128;DHT22;8168;49.036;7.690;2023-06-22T10:54:57;28.00;99.90
16128;DHT22;8168;49.036;7.690;2023-06-22T10:57:28;28.10;99.90
16128;DHT22;8168;49.036;7.690;2023-06-22T10:59:58;30.80;99.90
16128;DHT22;8168;49.036;7.690;2023-06-22T11:02:29;28.30;99.90
16128;DHT22;8168;49.036;7.690;2023-06-22T11:04:59;28.30;99.90
16128;DHT22;8168;49.036;7.690;2023-06-22T11:07:30;28.30;99.90
16128;DHT22;8168;49.036;7.690;2023-06-22T11:10:01;28.30;99.90
16128;DHT22;8168;49.036;7.690;2023-06-22T11:12:32;28.40;99.90
16128;DHT22;8168;49.036;7.690;2023-06-22T11:15:03;28.40;99.90
16128;DHT22;8168;49.036;7.690;2023-06-22T11:17:33;27.70;99.90
16128;DHT22;8168;49.036;7.690;2023-06-22T11:20:05;28.40;99.90
16128;DHT22;8168;49.036;7.690;2023-06-22T11:22:45;28.40;99.90
16128;DHT22;8168;49.036;7.690;2023-06-22T11:25:16;28.40;99.90
16128;DHT22;8168;49.036;7.690;2023-06-22T11:27:46;28.40;99.90
16128;DHT22;8168;49.036;7.690;2023-06-22T11:30:17;28.50;99.90
16128;DHT22;8168;49.036;7.690;2023-06-22T11:32:48;28.50;99.90
16128;DHT22;8168;49.036;7.690;2023-06-22T11:35:18;28.50;99.90
16128;DHT22;8168;49.036;7.690;2023-06-22T11:37:49;28.40;99.90
16128;DHT22;8168;49.036;7.690;2023-06-22T11:40:22;28.40;99.90
16128;DHT22;8168;49.036;7.690;2023-06-22T11:42:53;28.30;99.90
16128;DHT22;8168;49.036;7.690;2023-06-22T11:45:24;28.30;99.90
16128;DHT22;8168;49.036;7.690;2023-06-22T11:47:54;28.20;99.90
16128;DHT22;8168;49.036;7.690;2023-06-22T11:50:25;28.20;99.90
16128;DHT22;8168;49.036;7.690;2023-06-22T11:52:55;28.10;99.90
16128;DHT22;8168;49.036;7.690;2023-06-22T11:55:26;28.20;99.90
16128;DHT22;8168;49.036;7.690;2023-06-22T11:57:57;28.20;99.90
16128;DHT22;8168;49.036;7.690;2023-06-22T12:00:30;28.20;99.90
16128;DHT22;8168;49.036;7.690;2023-06-22T12:03:01;28.20;99.90
16128;DHT22;8168;49.036;7.690;2023-06-22T12:05:32;28.20;99.90
16128;DHT22;8168;49.036;7.690;2023-06-22T12:08:02;28.20;99.90
16128;DHT22;8168;49.036;7.690;2023-06-22T12:10:33;28.20;99.90
16128;DHT22;8168;49.036;7.690;2023-06-22T12:13:04;28.30;99.90
16128;DHT22;8168;49.036;7.690;2023-06-22T12:15:35;28.40;99.90
16128;DHT22;8168;49.036;7.690;2023-06-22T12:18:05;28.50;99.90
16128;DHT22;8168;49.036;7.690;2023-06-22T12:20:36;28.60;99.90
16128;DHT22;8168;49.036;7.690;2023-06-22T12:23:07;28.80;99.90
16128;DHT22;8168;49.036;7.690;2023-06-22T12:25:38;28.90;99.90
16128;DHT22;8168;49.036;7.690;2023-06-22T12:28:08;29.00;99.90
16128;DHT22;8168;49.036;7.690;2023-06-22T12:30:39;29.00;99.90
16128;DHT22;8168;49.036;7.690;2023-06-22T12:33:09;29.00;99.90
16128;DHT22;8168;49.036;7.690;2023-06-22T12:35:40;29.10;99.90
16128;DHT22;8168;49.036;7.690;2023-06-22T12:38:11;29.10;99.90
16128;DHT22;8168;49.036;7.690;2023-06-22T12:40:41;29.30;99.90
16128;DHT22;8168;49.036;7.690;2023-06-22T12:43:12;29.30;99.90
16128;DHT22;8168;49.036;7.690;2023-06-22T12:45:43;29.50;99.90
16128;DHT22;8168;49.036;7.690;2023-06-22T12:48:13;29.50;99.90
16128;DHT22;8168;49.036;7.690;2023-06-22T12:50:44;29.50;99.90
16128;DHT22;8168;49.036;7.690;2023-06-22T12:53:14;29.60;99.90
16128;DHT22;8168;49.036;7.690;2023-06-22T12:55:45;29.70;99.90
16128;DHT22;8168;49.036;7.690;2023-06-22T12:58:16;29.80;99.90
16128;DHT22;8168;49.036;7.690;2023-06-22T13:00:47;30.00;99.90
16128;DHT22;8168;49.036;7.690;2023-06-22T13:03:17;30.00;99.90
16128;DHT22;8168;49.036;7.690;2023-06-22T13:05:48;29.90;99.90
16128;DHT22;8168;49.036;7.690;2023-06-22T13:08:19;29.80;99.90
16128;DHT22;8168;49.036;7.690;2023-06-22T13:10:49;29.80;99.90
16128;DHT22;8168;49.036;7.690;2023-06-22T13:13:20;29.70;99.90
16128;DHT22;8168;49.036;7.690;2023-06-22T13:15:50;29.60;99.90
16128;DHT22;8168;49.036;7.690;2023-06-22T13:18:23;29.40;99.90
16128;DHT22;8168;49.036;7.690;2023-06-22T13:20:53;29.40;99.90
16128;DHT22;8168;49.036;7.690;2023-06-22T13:23:25;29.30;99.90
16128;DHT22;8168;49.036;7.690;2023-06-22T13:25:55;29.10;99.90
16128;DHT22;8168;49.036;7.690;2023-06-22T13:28:26;29.00;99.90
16128;DHT22;8168;49.036;7.690;2023-06-22T13:30:56;28.70;99.90
16128;DHT22;8168;49.036;7.690;2023-06-22T13:33:27;28.40;99.90
16128;DHT22;8168;49.036;7.690;2023-06-22T13:35:58;28.20;99.90
16128;DHT22;8168;49.036;7.690;2023-06-22T13:38:28;28.10;99.90
16128;DHT22;8168;49.036;7.690;2023-06-22T13:40:59;28.00;99.90
16128;DHT22;8168;49.036;7.690;2023-06-22T13:43:30;28.10;99.90
16128;DHT22;8168;49.036;7.690;2023-06-22T13:46:00;28.10;99.90
16128;DHT22;8168;49.036;7.690;2023-06-22T13:48:31;28.30;99.90
16128;DHT22;8168;49.036;7.690;2023-06-22T13:51:02;28.40;99.90
16128;DHT22;8168;49.036;7.690;2023-06-22T13:53:32;28.50;99.90
16128;DHT22;8168;49.036;7.690;2023-06-22T13:56:03;28.60;99.90
16128;DHT22;8168;49.036;7.690;2023-06-22T13:58:34;28.70;99.90
16128;DHT22;8168;49.036;7.690;2023-06-22T14:01:05;28.70;99.90
16128;DHT22;8168;49.036;7.690;2023-06-22T14:03:35;28.80;99.90
16128;DHT22;8168;49.036;7.690;2023-06-22T14:06:06;29.00;99.90
16128;DHT22;8168;49.036;7.690;2023-06-22T14:08:37;29.10;99.90
16128;DHT22;8168;49.036;7.690;2023-06-22T14:11:08;29.20;99.90
16128;DHT22;8168;49.036;7.690;2023-06-22T14:13:38;29.30;99.90
16128;DHT22;8168;49.036;7.690;2023-06-22T14:16:09;29.30;99.90
16128;DHT22;8168;49.036;7.690;2023-06-22T14:18:39;29.30;99.90
16128;DHT22;8168;49.036;7.690;2023-06-22T14:21:10;29.30;99.90
16128;DHT22;8168;49.036;7.690;2023-06-22T14:23:41;29.20;99.90
16128;DHT22;8168;49.036;7.690;2023-06-22T14:26:11;29.20;99.90
16128;DHT22;8168;49.036;7.690;2023-06-22T14:28:42;29.30;99.90
16128;DHT22;8168;49.036;7.690;2023-06-22T14:31:14;29.40;99.90
16128;DHT22;8168;49.036;7.690;2023-06-22T14:33:47;29.50;99.90
16128;DHT22;8168;49.036;7.690;2023-06-22T14:36:18;29.50;99.90
16128;DHT22;8168;49.036;7.690;2023-06-22T14:38:49;29.50;99.90
16128;DHT22;8168;49.036;7.690;2023-06-22T14:41:19;29.70;99.90
16128;DHT22;8168;49.036;7.690;2023-06-22T14:43:50;29.70;99.90
16128;DHT22;8168;49.036;7.690;2023-06-22T14:46:21;29.70;99.90
16128;DHT22;8168;49.036;7.690;2023-06-22T14:48:51;29.80;99.90
16128;DHT22;8168;49.036;7.690;2023-06-22T14:51:22;29.80;99.90
16128;DHT22;8168;49.036;7.690;2023-06-22T14:53:53;29.80;99.90
16128;DHT22;8168;49.036;7.690;2023-06-22T14:56:23;29.80;99.90
16128;DHT22;8168;49.036;7.690;2023-06-22T14:58:54;29.80;99.90
16128;DHT22;8168;49.036;7.690;2023-06-22T15:01:24;29.90;99.90
16128;DHT22;8168;49.036;7.690;2023-06-22T15:03:55;29.90;99.90
16128;DHT22;8168;49.036;7.690;2023-06-22T15:06:26;29.80;99.90
16128;DHT22;8168;49.036;7.690;2023-06-22T15:08:57;29.80;99.90
16128;DHT22;8168;49.036;7.690;2023-06-22T15:11:28;29.90;99.90
16128;DHT22;8168;49.036;7.690;2023-06-22T15:13:58;30.00;99.90
16128;DHT22;8168;49.036;7.690;2023-06-22T15:16:30;30.00;99.90
16128;DHT22;8168;49.036;7.690;2023-06-22T15:19:01;29.90;99.90
16128;DHT22;8168;49.036;7.690;2023-06-22T15:21:32;29.80;99.90
16128;DHT22;8168;49.036;7.690;2023-06-22T15:24:03;29.60;99.90
16128;DHT22;8168;49.036;7.690;2023-06-22T15:26:34;29.50;99.90
16128;DHT22;8168;49.036;7.690;2023-06-22T15:29:05;29.50;99.90
16128;DHT22;8168;49.036;7.690;2023-06-22T15:31:35;29.70;99.90
16128;DHT22;8168;49.036;7.690;2023-06-22T15:34:06;29.70;99.90
16128;DHT22;8168;49.036;7.690;2023-06-22T15:36:36;29.70;98.60
16128;DHT22;8168;49.036;7.690;2023-06-22T15:39:07;29.70;97.80
16128;DHT22;8168;49.036;7.690;2023-06-22T15:41:41;29.60;97.40
16128;DHT22;8168;49.036;7.690;2023-06-22T15:44:12;29.60;94.50
16128;DHT22;8168;49.036;7.690;2023-06-22T15:46:42;29.60;94.60
16128;DHT22;8168;49.036;7.690;2023-06-22T15:49:13;29.60;94.30
16128;DHT22;8168;49.036;7.690;2023-06-22T15:51:44;29.50;92.20
16128;DHT22;8168;49.036;7.690;2023-06-22T15:54:15;29.40;90.60
16128;DHT22;8168;49.036;7.690;2023-06-22T15:56:46;29.40;89.80
16128;DHT22;8168;49.036;7.690;2023-06-22T15:59:18;29.40;90.30
16128;DHT22;8168;49.036;7.690;2023-06-22T16:01:48;29.40;87.60
16128;DHT22;8168;49.036;7.690;2023-06-22T16:04:19;29.40;86.30
16128;DHT22;8168;49.036;7.690;2023-06-22T16:06:50;29.30;85.90
16128;DHT22;8168;49.036;7.690;2023-06-22T16:09:20;29.40;86.60
16128;DHT22;8168;49.036;7.690;2023-06-22T16:11:51;29.40;86.40
16128;DHT22;8168;49.036;7.690;2023-06-22T16:14:22;29.40;84.70
16128;DHT22;8168;49.036;7.690;2023-06-22T16:16:52;29.30;85.90